sensor_id;sensor_type;location;lat;lon;timestamp;P1;durP1;ratioP1;P2;durP2;ratioP2
39066;SDS011;24821;51.988;6.020;2023-05-18T00:01:11;2.30;;;2.10;;
39066;SDS011;24821;51.988;6.020;2023-05-18T00:03:38;3.60;;;1.80;;
39066;SDS011;24821;51.988;6.020;2023-05-18T00:06:04;2.15;;;1.90;;
39066;SDS011;24821;51.988;6.020;2023-05-18T00:08:31;2.28;;;2.08;;
39066;SDS011;24821;51.988;6.020;2023-05-18T00:11:00;1.88;;;1.77;;
39066;SDS011;24821;51.988;6.020;2023-05-18T00:13:26;2.80;;;1.92;;
39066;SDS011;24821;51.988;6.020;2023-05-18T00:15:52;4.95;;;2.58;;
39066;SDS011;24821;51.988;6.020;2023-05-18T00:18:18;9.82;;;2.05;;
39066;SDS011;24821;51.988;6.020;2023-05-18T00:20:47;1.50;;;1.40;;
39066;SDS011;24821;51.988;6.020;2023-05-18T00:23:22;6.07;;;2.10;;
39066;SDS011;24821;51.988;6.020;2023-05-18T00:25:57;3.60;;;2.22;;
39066;SDS011;24821;51.988;6.020;2023-05-18T00:28:24;7.30;;;2.53;;
39066;SDS011;24821;51.988;6.020;2023-05-18T00:30:50;3.85;;;2.50;;
39066;SDS011;24821;51.988;6.020;2023-05-18T00:33:17;1.98;;;1.73;;
39066;SDS011;24821;51.988;6.020;2023-05-18T00:35:42;2.03;;;1.77;;
39066;SDS011;24821;51.988;6.020;2023-05-18T00:38:08;4.10;;;1.67;;
39066;SDS011;24821;51.988;6.020;2023-05-18T00:40:33;8.10;;;2.38;;
39066;SDS011;24821;51.988;6.020;2023-05-18T00:42:59;1.55;;;1.50;;
39066;SDS011;24821;51.988;6.020;2023-05-18T00:45:25;2.05;;;1.50;;
39066;SDS011;24821;51.988;6.020;2023-05-18T00:47:51;4.13;;;2.08;;
39066;SDS011;24821;51.988;6.020;2023-05-18T00:50:16;1.73;;;1.63;;
39066;SDS011;24821;51.988;6.020;2023-05-18T00:52:42;1.92;;;1.83;;
39066;SDS011;24821;51.988;6.020;2023-05-18T00:55:09;1.80;;;1.67;;
39066;SDS011;24821;51.988;6.020;2023-05-18T00:57:36;4.03;;;1.85;;
39066;SDS011;24821;51.988;6.020;2023-05-18T01:00:02;2.83;;;1.85;;
39066;SDS011;24821;51.988;6.020;2023-05-18T01:02:31;1.65;;;1.55;;
39066;SDS011;24821;51.988;6.020;2023-05-18T01:04:56;2.10;;;1.90;;
39066;SDS011;24821;51.988;6.020;2023-05-18T01:07:24;4.72;;;2.10;;
39066;SDS011;24821;51.988;6.020;2023-05-18T01:09:51;4.18;;;1.88;;
39066;SDS011;24821;51.988;6.020;2023-05-18T01:12:20;1.90;;;1.70;;
39066;SDS011;24821;51.988;6.020;2023-05-18T01:14:58;2.70;;;2.22;;
39066;SDS011;24821;51.988;6.020;2023-05-18T01:20:24;2.65;;;1.73;;
39066;SDS011;24821;51.988;6.020;2023-05-18T01:23:11;3.70;;;2.28;;
39066;SDS011;24821;51.988;6.020;2023-05-18T01:25:46;2.03;;;1.90;;
39066;SDS011;24821;51.988;6.020;2023-05-18T01:28:28;2.90;;;1.92;;
39066;SDS011;24821;51.988;6.020;2023-05-18T01:30:57;4.35;;;1.90;;
39066;SDS011;24821;51.988;6.020;2023-05-18T01:33:23;2.17;;;1.50;;
39066;SDS011;24821;51.988;6.020;2023-05-18T01:35:50;2.10;;;1.98;;
39066;SDS011;24821;51.988;6.020;2023-05-18T01:38:17;1.83;;;1.73;;
39066;SDS011;24821;51.988;6.020;2023-05-18T01:43:19;11.05;;;1.88;;
39066;SDS011;24821;51.988;6.020;2023-05-18T01:45:47;1.48;;;1.38;;
39066;SDS011;24821;51.988;6.020;2023-05-18T01:48:20;1.67;;;1.58;;
39066;SDS011;24821;51.988;6.020;2023-05-18T01:50:49;4.15;;;2.55;;
39066;SDS011;24821;51.988;6.020;2023-05-18T01:53:23;2.65;;;1.88;;
39066;SDS011;24821;51.988;6.020;2023-05-18T01:55:53;6.70;;;2.28;;
39066;SDS011;24821;51.988;6.020;2023-05-18T01:58:19;3.13;;;2.42;;
39066;SDS011;24821;51.988;6.020;2023-05-18T02:00:46;2.17;;;1.45;;
39066;SDS011;24821;51.988;6.020;2023-05-18T02:03:13;2.28;;;1.80;;
39066;SDS011;24821;51.988;6.020;2023-05-18T02:05:38;2.72;;;1.98;;
39066;SDS011;24821;51.988;6.020;2023-05-18T02:08:04;3.78;;;2.15;;
39066;SDS011;24821;51.988;6.020;2023-05-18T02:10:30;3.08;;;2.28;;
39066;SDS011;24821;51.988;6.020;2023-05-18T02:12:55;5.53;;;2.17;;
39066;SDS011;24821;51.988;6.020;2023-05-18T02:15:21;3.25;;;2.25;;
39066;SDS011;24821;51.988;6.020;2023-05-18T02:17:47;7.15;;;2.00;;
39066;SDS011;24821;51.988;6.020;2023-05-18T02:20:12;2.33;;;2.10;;
39066;SDS011;24821;51.988;6.020;2023-05-18T02:22:42;3.33;;;1.80;;
39066;SDS011;24821;51.988;6.020;2023-05-18T02:25:08;1.85;;;1.75;;
39066;SDS011;24821;51.988;6.020;2023-05-18T02:27:34;5.60;;;2.47;;
39066;SDS011;24821;51.988;6.020;2023-05-18T02:30:01;6.45;;;1.92;;
39066;SDS011;24821;51.988;6.020;2023-05-18T02:32:29;2.15;;;1.90;;
39066;SDS011;24821;51.988;6.020;2023-05-18T02:34:56;6.65;;;1.73;;
39066;SDS011;24821;51.988;6.020;2023-05-18T02:37:26;3.70;;;1.98;;
39066;SDS011;24821;51.988;6.020;2023-05-18T02:39:52;2.28;;;1.90;;
39066;SDS011;24821;51.988;6.020;2023-05-18T02:42:17;3.10;;;2.20;;
39066;SDS011;24821;51.988;6.020;2023-05-18T02:44:43;2.83;;;1.83;;
39066;SDS011;24821;51.988;6.020;2023-05-18T02:47:08;1.70;;;1.60;;
39066;SDS011;24821;51.988;6.020;2023-05-18T02:49:34;2.28;;;2.10;;
39066;SDS011;24821;51.988;6.020;2023-05-18T02:52:00;3.28;;;1.65;;
39066;SDS011;24821;51.988;6.020;2023-05-18T02:54:25;3.95;;;2.55;;
39066;SDS011;24821;51.988;6.020;2023-05-18T02:56:51;2.55;;;1.73;;
39066;SDS011;24821;51.988;6.020;2023-05-18T02:59:20;1.77;;;1.67;;
39066;SDS011;24821;51.988;6.020;2023-05-18T03:01:46;5.40;;;2.47;;
39066;SDS011;24821;51.988;6.020;2023-05-18T03:04:11;3.78;;;2.25;;
39066;SDS011;24821;51.988;6.020;2023-05-18T03:06:37;2.65;;;2.42;;
39066;SDS011;24821;51.988;6.020;2023-05-18T03:09:04;2.80;;;1.90;;
39066;SDS011;24821;51.988;6.020;2023-05-18T03:11:29;3.92;;;1.60;;
39066;SDS011;24821;51.988;6.020;2023-05-18T03:13:55;4.75;;;2.67;;
39066;SDS011;24821;51.988;6.020;2023-05-18T03:16:21;2.10;;;1.75;;
39066;SDS011;24821;51.988;6.020;2023-05-18T03:18:52;7.05;;;2.40;;
39066;SDS011;24821;51.988;6.020;2023-05-18T03:21:22;4.07;;;2.28;;
39066;SDS011;24821;51.988;6.020;2023-05-18T03:23:48;5.18;;;2.70;;
39066;SDS011;24821;51.988;6.020;2023-05-18T03:26:14;4.95;;;2.22;;
39066;SDS011;24821;51.988;6.020;2023-05-18T03:28:40;2.20;;;1.98;;
39066;SDS011;24821;51.988;6.020;2023-05-18T03:31:06;1.77;;;1.60;;
39066;SDS011;24821;51.988;6.020;2023-05-18T03:33:32;1.92;;;1.77;;
39066;SDS011;24821;51.988;6.020;2023-05-18T03:36:01;2.90;;;2.03;;
39066;SDS011;24821;51.988;6.020;2023-05-18T03:38:28;2.80;;;2.05;;
39066;SDS011;24821;51.988;6.020;2023-05-18T03:40:53;5.50;;;2.92;;
39066;SDS011;24821;51.988;6.020;2023-05-18T03:43:19;2.38;;;2.17;;
39066;SDS011;24821;51.988;6.020;2023-05-18T03:45:45;2.90;;;2.15;;
39066;SDS011;24821;51.988;6.020;2023-05-18T03:48:10;7.28;;;2.72;;
39066;SDS011;24821;51.988;6.020;2023-05-18T03:50:36;5.45;;;2.63;;
39066;SDS011;24821;51.988;6.020;2023-05-18T03:53:01;10.23;;;2.75;;
39066;SDS011;24821;51.988;6.020;2023-05-18T03:55:27;3.70;;;2.13;;
39066;SDS011;24821;51.988;6.020;2023-05-18T03:57:53;1.65;;;1.55;;
39066;SDS011;24821;51.988;6.020;2023-05-18T04:00:19;2.35;;;1.65;;
39066;SDS011;24821;51.988;6.020;2023-05-18T04:02:45;2.45;;;2.13;;
39066;SDS011;24821;51.988;6.020;2023-05-18T04:05:11;2.85;;;2.47;;
39066;SDS011;24821;51.988;6.020;2023-05-18T04:07:36;2.97;;;2.30;;
39066;SDS011;24821;51.988;6.020;2023-05-18T04:10:08;2.30;;;1.70;;
39066;SDS011;24821;51.988;6.020;2023-05-18T04:12:34;3.47;;;2.55;;
39066;SDS011;24821;51.988;6.020;2023-05-18T04:15:00;2.80;;;2.10;;
39066;SDS011;24821;51.988;6.020;2023-05-18T04:17:26;3.10;;;1.92;;
39066;SDS011;24821;51.988;6.020;2023-05-18T04:19:51;2.97;;;2.13;;
39066;SDS011;24821;51.988;6.020;2023-05-18T04:22:17;2.20;;;2.05;;
39066;SDS011;24821;51.988;6.020;2023-05-18T04:24:42;1.90;;;1.80;;
39066;SDS011;24821;51.988;6.020;2023-05-18T04:27:11;8.73;;;2.65;;
39066;SDS011;24821;51.988;6.020;2023-05-18T04:29:37;2.35;;;2.15;;
39066;SDS011;24821;51.988;6.020;2023-05-18T04:32:04;5.72;;;2.50;;
39066;SDS011;24821;51.988;6.020;2023-05-18T04:34:31;4.45;;;2.90;;
39066;SDS011;24821;51.988;6.020;2023-05-18T04:36:59;4.43;;;2.05;;
39066;SDS011;24821;51.988;6.020;2023-05-18T04:39:26;9.95;;;2.88;;
39066;SDS011;24821;51.988;6.020;2023-05-18T04:41:52;3.03;;;2.33;;
39066;SDS011;24821;51.988;6.020;2023-05-18T04:44:27;2.78;;;2.47;;
39066;SDS011;24821;51.988;6.020;2023-05-18T04:46:53;10.50;;;2.45;;
39066;SDS011;24821;51.988;6.020;2023-05-18T04:49:19;2.17;;;2.00;;
39066;SDS011;24821;51.988;6.020;2023-05-18T04:51:50;2.83;;;2.42;;
39066;SDS011;24821;51.988;6.020;2023-05-18T04:54:20;2.10;;;1.92;;
39066;SDS011;24821;51.988;6.020;2023-05-18T04:56:49;4.53;;;1.92;;
39066;SDS011;24821;51.988;6.020;2023-05-18T04:59:16;1.73;;;1.63;;
39066;SDS011;24821;51.988;6.020;2023-05-18T05:01:42;2.67;;;2.22;;
39066;SDS011;24821;51.988;6.020;2023-05-18T05:04:08;4.72;;;2.03;;
39066;SDS011;24821;51.988;6.020;2023-05-18T05:06:34;5.25;;;2.17;;
39066;SDS011;24821;51.988;6.020;2023-05-18T05:09:00;2.15;;;1.95;;
39066;SDS011;24821;51.988;6.020;2023-05-18T05:11:25;3.20;;;1.90;;
39066;SDS011;24821;51.988;6.020;2023-05-18T05:13:51;5.63;;;2.50;;
39066;SDS011;24821;51.988;6.020;2023-05-18T05:16:16;7.93;;;2.50;;
39066;SDS011;24821;51.988;6.020;2023-05-18T05:18:42;2.20;;;2.00;;
39066;SDS011;24821;51.988;6.020;2023-05-18T05:21:08;2.60;;;1.85;;
39066;SDS011;24821;51.988;6.020;2023-05-18T05:23:34;5.05;;;1.77;;
39066;SDS011;24821;51.988;6.020;2023-05-18T05:25:59;7.72;;;1.85;;
39066;SDS011;24821;51.988;6.020;2023-05-18T05:28:25;5.65;;;2.65;;
39066;SDS011;24821;51.988;6.020;2023-05-18T05:30:50;5.32;;;2.60;;
39066;SDS011;24821;51.988;6.020;2023-05-18T05:33:16;2.15;;;2.05;;
39066;SDS011;24821;51.988;6.020;2023-05-18T05:35:43;2.58;;;2.28;;
39066;SDS011;24821;51.988;6.020;2023-05-18T05:38:08;3.58;;;2.38;;
39066;SDS011;24821;51.988;6.020;2023-05-18T05:40:34;7.35;;;2.72;;
39066;SDS011;24821;51.988;6.020;2023-05-18T05:43:00;3.30;;;2.35;;
39066;SDS011;24821;51.988;6.020;2023-05-18T05:45:25;2.80;;;2.17;;
39066;SDS011;24821;51.988;6.020;2023-05-18T05:47:54;8.88;;;2.15;;
39066;SDS011;24821;51.988;6.020;2023-05-18T05:50:19;15.25;;;2.55;;
39066;SDS011;24821;51.988;6.020;2023-05-18T05:52:45;4.68;;;2.03;;
39066;SDS011;24821;51.988;6.020;2023-05-18T05:55:11;5.70;;;2.58;;
39066;SDS011;24821;51.988;6.020;2023-05-18T05:57:36;6.55;;;3.25;;
39066;SDS011;24821;51.988;6.020;2023-05-18T06:00:06;2.28;;;2.13;;
39066;SDS011;24821;51.988;6.020;2023-05-18T06:02:36;2.60;;;2.38;;
39066;SDS011;24821;51.988;6.020;2023-05-18T06:05:02;7.20;;;2.78;;
39066;SDS011;24821;51.988;6.020;2023-05-18T06:07:29;2.80;;;2.40;;
39066;SDS011;24821;51.988;6.020;2023-05-18T06:09:55;3.80;;;2.30;;
39066;SDS011;24821;51.988;6.020;2023-05-18T06:12:21;9.45;;;3.20;;
39066;SDS011;24821;51.988;6.020;2023-05-18T06:14:46;2.03;;;1.92;;
39066;SDS011;24821;51.988;6.020;2023-05-18T06:17:12;2.63;;;2.38;;
39066;SDS011;24821;51.988;6.020;2023-05-18T06:19:37;2.85;;;2.30;;
39066;SDS011;24821;51.988;6.020;2023-05-18T06:22:03;12.88;;;2.92;;
39066;SDS011;24821;51.988;6.020;2023-05-18T06:24:29;8.40;;;4.70;;
39066;SDS011;24821;51.988;6.020;2023-05-18T06:26:54;6.35;;;5.18;;
39066;SDS011;24821;51.988;6.020;2023-05-18T06:29:20;4.90;;;2.75;;
39066;SDS011;24821;51.988;6.020;2023-05-18T06:31:45;5.13;;;2.65;;
39066;SDS011;24821;51.988;6.020;2023-05-18T06:34:11;8.68;;;2.67;;
39066;SDS011;24821;51.988;6.020;2023-05-18T06:36:36;2.92;;;2.00;;
39066;SDS011;24821;51.988;6.020;2023-05-18T06:39:02;2.67;;;2.40;;
39066;SDS011;24821;51.988;6.020;2023-05-18T06:41:29;5.65;;;2.33;;
39066;SDS011;24821;51.988;6.020;2023-05-18T06:43:56;6.82;;;3.03;;
39066;SDS011;24821;51.988;6.020;2023-05-18T06:46:24;2.47;;;2.28;;
39066;SDS011;24821;51.988;6.020;2023-05-18T06:48:50;1.73;;;1.63;;
39066;SDS011;24821;51.988;6.020;2023-05-18T06:51:16;4.10;;;2.15;;
39066;SDS011;24821;51.988;6.020;2023-05-18T06:53:42;5.57;;;3.05;;
39066;SDS011;24821;51.988;6.020;2023-05-18T06:56:08;3.08;;;1.77;;
39066;SDS011;24821;51.988;6.020;2023-05-18T06:58:36;1.88;;;1.77;;
39066;SDS011;24821;51.988;6.020;2023-05-18T07:01:03;7.68;;;2.75;;
39066;SDS011;24821;51.988;6.020;2023-05-18T07:03:28;3.80;;;2.58;;
39066;SDS011;24821;51.988;6.020;2023-05-18T07:05:54;11.15;;;3.65;;
39066;SDS011;24821;51.988;6.020;2023-05-18T07:08:19;6.78;;;2.75;;
39066;SDS011;24821;51.988;6.020;2023-05-18T07:10:45;3.83;;;2.25;;
39066;SDS011;24821;51.988;6.020;2023-05-18T07:13:10;3.38;;;2.65;;
39066;SDS011;24821;51.988;6.020;2023-05-18T07:15:36;3.30;;;2.33;;
39066;SDS011;24821;51.988;6.020;2023-05-18T07:18:02;7.85;;;2.40;;
39066;SDS011;24821;51.988;6.020;2023-05-18T07:20:28;8.88;;;2.05;;
39066;SDS011;24821;51.988;6.020;2023-05-18T07:22:54;5.75;;;2.05;;
39066;SDS011;24821;51.988;6.020;2023-05-18T07:25:19;3.53;;;2.75;;
39066;SDS011;24821;51.988;6.020;2023-05-18T07:27:46;5.93;;;3.50;;
39066;SDS011;24821;51.988;6.020;2023-05-18T07:30:11;6.10;;;5.00;;
39066;SDS011;24821;51.988;6.020;2023-05-18T07:32:37;4.82;;;4.22;;
39066;SDS011;24821;51.988;6.020;2023-05-18T07:35:03;6.65;;;3.72;;
39066;SDS011;24821;51.988;6.020;2023-05-18T07:37:29;7.68;;;3.20;;
39066;SDS011;24821;51.988;6.020;2023-05-18T07:39:55;3.33;;;3.00;;
39066;SDS011;24821;51.988;6.020;2023-05-18T07:42:20;5.05;;;2.72;;
39066;SDS011;24821;51.988;6.020;2023-05-18T07:44:46;6.10;;;3.83;;
39066;SDS011;24821;51.988;6.020;2023-05-18T07:47:12;4.18;;;2.92;;
39066;SDS011;24821;51.988;6.020;2023-05-18T07:49:37;2.42;;;2.22;;
39066;SDS011;24821;51.988;6.020;2023-05-18T07:52:05;2.38;;;2.22;;
39066;SDS011;24821;51.988;6.020;2023-05-18T07:54:32;4.28;;;2.80;;
39066;SDS011;24821;51.988;6.020;2023-05-18T07:56:58;2.17;;;2.08;;
39066;SDS011;24821;51.988;6.020;2023-05-18T07:59:23;2.55;;;2.38;;
39066;SDS011;24821;51.988;6.020;2023-05-18T08:01:49;2.67;;;2.13;;
39066;SDS011;24821;51.988;6.020;2023-05-18T08:04:14;7.70;;;3.03;;
39066;SDS011;24821;51.988;6.020;2023-05-18T08:06:40;4.57;;;2.53;;
39066;SDS011;24821;51.988;6.020;2023-05-18T08:09:05;5.85;;;2.80;;
39066;SDS011;24821;51.988;6.020;2023-05-18T08:11:31;13.63;;;3.28;;
39066;SDS011;24821;51.988;6.020;2023-05-18T08:13:57;4.35;;;2.92;;
39066;SDS011;24821;51.988;6.020;2023-05-18T08:16:23;1.70;;;1.60;;
39066;SDS011;24821;51.988;6.020;2023-05-18T08:18:48;3.70;;;1.90;;
39066;SDS011;24821;51.988;6.020;2023-05-18T08:21:14;2.28;;;2.08;;
39066;SDS011;24821;51.988;6.020;2023-05-18T08:23:40;7.07;;;2.53;;
39066;SDS011;24821;51.988;6.020;2023-05-18T08:26:06;3.33;;;2.30;;
39066;SDS011;24821;51.988;6.020;2023-05-18T08:28:32;9.18;;;2.28;;
39066;SDS011;24821;51.988;6.020;2023-05-18T08:30:58;5.88;;;2.40;;
39066;SDS011;24821;51.988;6.020;2023-05-18T08:33:24;2.33;;;1.77;;
39066;SDS011;24821;51.988;6.020;2023-05-18T08:35:50;6.25;;;2.28;;
39066;SDS011;24821;51.988;6.020;2023-05-18T08:38:15;1.70;;;1.60;;
39066;SDS011;24821;51.988;6.020;2023-05-18T08:40:42;2.95;;;2.20;;
39066;SDS011;24821;51.988;6.020;2023-05-18T08:43:19;1.58;;;1.48;;
39066;SDS011;24821;51.988;6.020;2023-05-18T08:45:47;3.30;;;1.92;;
39066;SDS011;24821;51.988;6.020;2023-05-18T08:48:34;10.05;;;2.25;;
39066;SDS011;24821;51.988;6.020;2023-05-18T08:51:01;1.70;;;1.60;;
39066;SDS011;24821;51.988;6.020;2023-05-18T08:53:29;4.57;;;2.00;;
39066;SDS011;24821;51.988;6.020;2023-05-18T08:55:57;1.80;;;1.70;;
39066;SDS011;24821;51.988;6.020;2023-05-18T08:58:34;2.53;;;1.80;;
39066;SDS011;24821;51.988;6.020;2023-05-18T09:01:02;9.20;;;2.22;;
39066;SDS011;24821;51.988;6.020;2023-05-18T09:03:28;7.35;;;2.50;;
39066;SDS011;24821;51.988;6.020;2023-05-18T09:05:55;5.32;;;2.28;;
39066;SDS011;24821;51.988;6.020;2023-05-18T09:08:23;8.18;;;2.08;;
39066;SDS011;24821;51.988;6.020;2023-05-18T09:10:50;3.28;;;1.52;;
39066;SDS011;24821;51.988;6.020;2023-05-18T09:13:17;8.85;;;2.58;;
39066;SDS011;24821;51.988;6.020;2023-05-18T09:15:46;2.10;;;1.52;;
39066;SDS011;24821;51.988;6.020;2023-05-18T09:18:12;6.35;;;2.25;;
39066;SDS011;24821;51.988;6.020;2023-05-18T09:20:38;2.42;;;2.22;;
39066;SDS011;24821;51.988;6.020;2023-05-18T09:23:04;14.95;;;3.05;;
39066;SDS011;24821;51.988;6.020;2023-05-18T09:25:29;4.80;;;1.98;;
39066;SDS011;24821;51.988;6.020;2023-05-18T09:27:59;2.55;;;2.33;;
39066;SDS011;24821;51.988;6.020;2023-05-18T09:30:25;5.25;;;2.72;;
39066;SDS011;24821;51.988;6.020;2023-05-18T09:32:51;10.25;;;2.78;;
39066;SDS011;24821;51.988;6.020;2023-05-18T09:35:17;3.83;;;2.75;;
39066;SDS011;24821;51.988;6.020;2023-05-18T09:37:42;7.80;;;3.22;;
39066;SDS011;24821;51.988;6.020;2023-05-18T09:40:08;5.55;;;2.38;;
39066;SDS011;24821;51.988;6.020;2023-05-18T09:42:35;3.83;;;3.22;;
39066;SDS011;24821;51.988;6.020;2023-05-18T09:45:02;4.53;;;3.00;;
39066;SDS011;24821;51.988;6.020;2023-05-18T09:47:34;4.40;;;2.58;;
39066;SDS011;24821;51.988;6.020;2023-05-18T09:50:00;2.65;;;2.22;;
39066;SDS011;24821;51.988;6.020;2023-05-18T09:52:25;4.97;;;2.35;;
39066;SDS011;24821;51.988;6.020;2023-05-18T09:54:51;3.00;;;2.72;;
39066;SDS011;24821;51.988;6.020;2023-05-18T09:57:26;3.00;;;2.70;;
39066;SDS011;24821;51.988;6.020;2023-05-18T09:59:55;5.32;;;2.85;;
39066;SDS011;24821;51.988;6.020;2023-05-18T10:02:26;3.45;;;3.05;;
39066;SDS011;24821;51.988;6.020;2023-05-18T10:04:52;5.35;;;2.80;;
39066;SDS011;24821;51.988;6.020;2023-05-18T10:07:17;3.42;;;3.13;;
39066;SDS011;24821;51.988;6.020;2023-05-18T10:09:43;2.88;;;2.50;;
39066;SDS011;24821;51.988;6.020;2023-05-18T10:14:36;5.22;;;3.15;;
39066;SDS011;24821;51.988;6.020;2023-05-18T10:17:03;5.72;;;2.92;;
39066;SDS011;24821;51.988;6.020;2023-05-18T10:19:30;3.25;;;2.85;;
39066;SDS011;24821;51.988;6.020;2023-05-18T10:22:01;2.47;;;2.15;;
39066;SDS011;24821;51.988;6.020;2023-05-18T10:24:27;8.15;;;2.47;;
39066;SDS011;24821;51.988;6.020;2023-05-18T10:26:55;4.47;;;3.00;;
39066;SDS011;24821;51.988;6.020;2023-05-18T10:29:28;2.60;;;2.40;;
39066;SDS011;24821;51.988;6.020;2023-05-18T10:31:54;2.38;;;2.17;;
39066;SDS011;24821;51.988;6.020;2023-05-18T10:34:26;4.22;;;3.35;;
39066;SDS011;24821;51.988;6.020;2023-05-18T10:36:53;3.03;;;2.83;;
39066;SDS011;24821;51.988;6.020;2023-05-18T10:39:20;4.15;;;3.35;;
39066;SDS011;24821;51.988;6.020;2023-05-18T10:41:46;5.20;;;3.13;;
39066;SDS011;24821;51.988;6.020;2023-05-18T10:44:12;3.33;;;3.08;;
39066;SDS011;24821;51.988;6.020;2023-05-18T10:46:39;3.47;;;3.15;;
39066;SDS011;24821;51.988;6.020;2023-05-18T10:49:06;7.20;;;3.08;;
39066;SDS011;24821;51.988;6.020;2023-05-18T10:51:37;3.78;;;3.28;;
39066;SDS011;24821;51.988;6.020;2023-05-18T10:54:09;5.82;;;2.92;;
39066;SDS011;24821;51.988;6.020;2023-05-18T10:56:37;2.92;;;2.72;;
39066;SDS011;24821;51.988;6.020;2023-05-18T10:59:07;4.50;;;2.90;;
39066;SDS011;24821;51.988;6.020;2023-05-18T11:01:34;2.53;;;2.35;;
39066;SDS011;24821;51.988;6.020;2023-05-18T11:04:02;5.70;;;3.53;;
39066;SDS011;24821;51.988;6.020;2023-05-18T11:06:28;4.68;;;2.92;;
39066;SDS011;24821;51.988;6.020;2023-05-18T11:08:55;6.85;;;2.45;;
39066;SDS011;24821;51.988;6.020;2023-05-18T11:11:23;3.45;;;3.08;;
39066;SDS011;24821;51.988;6.020;2023-05-18T11:13:52;4.47;;;3.63;;
39066;SDS011;24821;51.988;6.020;2023-05-18T11:16:18;3.83;;;3.28;;
39066;SDS011;24821;51.988;6.020;2023-05-18T11:18:48;3.92;;;3.53;;
39066;SDS011;24821;51.988;6.020;2023-05-18T11:24:19;12.38;;;3.55;;
39066;SDS011;24821;51.988;6.020;2023-05-18T11:29:32;3.38;;;3.08;;
39066;SDS011;24821;51.988;6.020;2023-05-18T11:32:00;4.88;;;3.30;;
39066;SDS011;24821;51.988;6.020;2023-05-18T11:34:45;7.63;;;3.20;;
39066;SDS011;24821;51.988;6.020;2023-05-18T11:37:14;4.70;;;3.15;;
39066;SDS011;24821;51.988;6.020;2023-05-18T11:39:41;4.50;;;3.00;;
39066;SDS011;24821;51.988;6.020;2023-05-18T11:42:18;4.68;;;2.90;;
39066;SDS011;24821;51.988;6.020;2023-05-18T11:44:50;4.00;;;3.10;;
39066;SDS011;24821;51.988;6.020;2023-05-18T11:47:20;8.32;;;3.25;;
39066;SDS011;24821;51.988;6.020;2023-05-18T11:49:47;2.90;;;2.63;;
39066;SDS011;24821;51.988;6.020;2023-05-18T11:54:57;5.10;;;3.53;;
39066;SDS011;24821;51.988;6.020;2023-05-18T11:57:25;11.45;;;3.67;;
39066;SDS011;24821;51.988;6.020;2023-05-18T12:00:04;5.03;;;2.67;;
39066;SDS011;24821;51.988;6.020;2023-05-18T12:02:35;4.95;;;3.17;;
39066;SDS011;24821;51.988;6.020;2023-05-18T12:05:06;6.80;;;2.67;;
39066;SDS011;24821;51.988;6.020;2023-05-18T12:07:33;4.43;;;2.85;;
39066;SDS011;24821;51.988;6.020;2023-05-18T12:10:06;7.13;;;4.07;;
39066;SDS011;24821;51.988;6.020;2023-05-18T12:12:34;5.75;;;3.60;;
39066;SDS011;24821;51.988;6.020;2023-05-18T12:15:01;7.95;;;3.65;;
39066;SDS011;24821;51.988;6.020;2023-05-18T12:17:45;3.80;;;3.40;;
39066;SDS011;24821;51.988;6.020;2023-05-18T12:20:12;4.80;;;3.65;;
39066;SDS011;24821;51.988;6.020;2023-05-18T12:22:43;9.95;;;3.38;;
39066;SDS011;24821;51.988;6.020;2023-05-18T12:25:10;2.97;;;2.70;;
39066;SDS011;24821;51.988;6.020;2023-05-18T12:27:40;3.75;;;3.03;;
39066;SDS011;24821;51.988;6.020;2023-05-18T12:30:08;3.28;;;3.03;;
39066;SDS011;24821;51.988;6.020;2023-05-18T12:32:48;6.03;;;3.72;;
39066;SDS011;24821;51.988;6.020;2023-05-18T12:35:15;3.88;;;2.85;;
39066;SDS011;24821;51.988;6.020;2023-05-18T12:37:42;4.40;;;4.00;;
39066;SDS011;24821;51.988;6.020;2023-05-18T12:40:17;3.30;;;3.10;;
39066;SDS011;24821;51.988;6.020;2023-05-18T12:42:51;4.22;;;3.65;;
39066;SDS011;24821;51.988;6.020;2023-05-18T12:45:30;2.80;;;2.60;;
39066;SDS011;24821;51.988;6.020;2023-05-18T12:48:06;4.30;;;3.47;;
39066;SDS011;24821;51.988;6.020;2023-05-18T12:50:33;6.97;;;3.97;;
39066;SDS011;24821;51.988;6.020;2023-05-18T12:53:00;6.28;;;3.25;;
39066;SDS011;24821;51.988;6.020;2023-05-18T12:55:26;3.88;;;3.58;;
39066;SDS011;24821;51.988;6.020;2023-05-18T12:57:58;4.95;;;3.15;;
39066;SDS011;24821;51.988;6.020;2023-05-18T13:00:25;3.95;;;3.08;;
39066;SDS011;24821;51.988;6.020;2023-05-18T13:02:51;4.10;;;3.33;;
39066;SDS011;24821;51.988;6.020;2023-05-18T13:05:16;5.68;;;3.35;;
39066;SDS011;24821;51.988;6.020;2023-05-18T13:07:48;3.13;;;2.92;;
39066;SDS011;24821;51.988;6.020;2023-05-18T13:10:15;6.60;;;2.88;;
39066;SDS011;24821;51.988;6.020;2023-05-18T13:12:42;3.53;;;2.67;;
39066;SDS011;24821;51.988;6.020;2023-05-18T13:17:58;3.17;;;2.97;;
39066;SDS011;24821;51.988;6.020;2023-05-18T13:20:32;3.40;;;2.63;;
39066;SDS011;24821;51.988;6.020;2023-05-18T13:23:04;4.75;;;3.40;;
39066;SDS011;24821;51.988;6.020;2023-05-18T13:25:39;3.63;;;2.95;;
39066;SDS011;24821;51.988;6.020;2023-05-18T13:28:06;3.17;;;2.85;;
39066;SDS011;24821;51.988;6.020;2023-05-18T13:30:34;5.88;;;3.58;;
39066;SDS011;24821;51.988;6.020;2023-05-18T13:33:00;6.43;;;3.40;;
39066;SDS011;24821;51.988;6.020;2023-05-18T13:35:26;9.57;;;4.93;;
39066;SDS011;24821;51.988;6.020;2023-05-18T13:37:53;3.97;;;3.45;;
39066;SDS011;24821;51.988;6.020;2023-05-18T13:40:19;6.05;;;3.83;;
39066;SDS011;24821;51.988;6.020;2023-05-18T13:42:45;7.53;;;3.30;;
39066;SDS011;24821;51.988;6.020;2023-05-18T13:45:12;7.93;;;3.38;;
39066;SDS011;24821;51.988;6.020;2023-05-18T13:47:38;3.40;;;3.05;;
39066;SDS011;24821;51.988;6.020;2023-05-18T13:50:07;2.40;;;2.05;;
39066;SDS011;24821;51.988;6.020;2023-05-18T13:52:34;4.20;;;3.03;;
39066;SDS011;24821;51.988;6.020;2023-05-18T13:55:01;6.63;;;3.17;;
39066;SDS011;24821;51.988;6.020;2023-05-18T13:57:28;3.08;;;2.60;;
39066;SDS011;24821;51.988;6.020;2023-05-18T13:59:56;3.15;;;2.13;;
39066;SDS011;24821;51.988;6.020;2023-05-18T14:02:23;2.60;;;2.40;;
39066;SDS011;24821;51.988;6.020;2023-05-18T14:04:49;5.68;;;2.72;;
39066;SDS011;24821;51.988;6.020;2023-05-18T14:07:15;5.45;;;2.63;;
39066;SDS011;24821;51.988;6.020;2023-05-18T14:09:41;3.85;;;2.53;;
39066;SDS011;24821;51.988;6.020;2023-05-18T14:12:06;8.65;;;3.05;;
39066;SDS011;24821;51.988;6.020;2023-05-18T14:14:34;4.75;;;2.72;;
39066;SDS011;24821;51.988;6.020;2023-05-18T14:17:00;7.03;;;2.80;;
39066;SDS011;24821;51.988;6.020;2023-05-18T14:19:27;3.40;;;2.47;;
39066;SDS011;24821;51.988;6.020;2023-05-18T14:21:52;2.53;;;2.33;;
39066;SDS011;24821;51.988;6.020;2023-05-18T14:24:18;3.03;;;2.70;;
39066;SDS011;24821;51.988;6.020;2023-05-18T14:26:43;4.82;;;3.22;;
39066;SDS011;24821;51.988;6.020;2023-05-18T14:29:09;4.95;;;2.45;;
39066;SDS011;24821;51.988;6.020;2023-05-18T14:31:35;3.22;;;2.78;;
39066;SDS011;24821;51.988;6.020;2023-05-18T14:34:01;3.15;;;2.35;;
39066;SDS011;24821;51.988;6.020;2023-05-18T14:36:26;3.75;;;2.97;;
39066;SDS011;24821;51.988;6.020;2023-05-18T14:38:52;3.88;;;3.28;;
39066;SDS011;24821;51.988;6.020;2023-05-18T14:41:17;3.88;;;2.72;;
39066;SDS011;24821;51.988;6.020;2023-05-18T14:43:45;4.88;;;3.08;;
39066;SDS011;24821;51.988;6.020;2023-05-18T14:46:11;5.35;;;3.22;;
39066;SDS011;24821;51.988;6.020;2023-05-18T14:48:36;4.68;;;2.63;;
39066;SDS011;24821;51.988;6.020;2023-05-18T14:51:02;3.15;;;2.65;;
39066;SDS011;24821;51.988;6.020;2023-05-18T14:53:28;2.95;;;2.10;;
39066;SDS011;24821;51.988;6.020;2023-05-18T14:55:53;4.05;;;3.40;;
39066;SDS011;24821;51.988;6.020;2023-05-18T14:58:19;10.13;;;3.05;;
39066;SDS011;24821;51.988;6.020;2023-05-18T15:00:44;4.68;;;3.13;;
39066;SDS011;24821;51.988;6.020;2023-05-18T15:03:10;4.28;;;2.78;;
39066;SDS011;24821;51.988;6.020;2023-05-18T15:05:35;5.32;;;3.75;;
39066;SDS011;24821;51.988;6.020;2023-05-18T15:08:02;5.22;;;3.47;;